Time;durP1;ratioP1;P1;durP2;ratioP2;P2;SDS_P1;SDS_P2;PMS_P1;PMS_P2;Temp;Humidity;BMP_temperature;BMP_pressure;BME280_temperature;BME280_humidity;BME280_pressure;Samples;Min_cycle;Max_cycle;Signal;HPM_P1;HPM_P2
2021/01/12 00:01:57;;;;;;;26.70;17.10;;;;;;;;;;5027669;28;20580;-77
2021/01/12 00:04:42;;;;;;;27.38;15.93;;;;;;;;;;5026973;28;20571;-77
2021/01/12 00:07:27;;;;;;;23.45;15.05;;;;;;;;;;5027973;28;20036;-78
2021/01/12 00:10:13;;;;;;;27.80;16.10;;;;;;;;;;5032049;28;20033;-78
2021/01/12 00:12:58;;;;;;;23.45;14.85;;;;;;;;;;5031100;28;20032;-77
2021/01/12 00:15:43;;;;;;;24.88;15.30;;;;;;;;;;5028385;28;20074;-78
2021/01/12 00:18:28;;;;;;;24.77;14.73;;;;;;;;;;5027664;28;20063;-78
2021/01/12 00:21:24;;;;;;;27.55;15.88;;;;;;;;;;5029926;28;20530;-77
2021/01/12 00:24:09;;;;;;;23.85;15.73;;;;;;;;;;5030274;28;20040;-78
2021/01/12 00:26:55;;;;;;;24.50;15.35;;;;;;;;;;5028497;28;20090;-78
2021/01/12 00:29:40;;;;;;;25.15;15.27;;;;;;;;;;5029851;28;20037;-78
2021/01/12 00:32:26;;;;;;;28.55;15.65;;;;;;;;;;5031610;28;20067;-78
2021/01/12 00:35:11;;;;;;;22.85;14.25;;;;;;;;;;5024691;28;20041;-78
2021/01/12 00:37:56;;;;;;;23.80;14.40;;;;;;;;;;5030081;28;20020;-77
2021/01/12 00:40:41;;;;;;;24.40;14.13;;;;;;;;;;5029553;28;20032;-77
2021/01/12 00:43:27;;;;;;;24.10;14.15;;;;;;;;;;5028354;28;20033;-77
2021/01/12 00:46:12;;;;;;;27.65;17.20;;;;;;;;;;5033502;28;20036;-79
2021/01/12 00:48:57;;;;;;;25.20;15.60;;;;;;;;;;5027564;28;20028;-77
2021/01/12 00:51:43;;;;;;;24.60;15.48;;;;;;;;;;5031483;28;20119;-76
2021/01/12 00:54:28;;;;;;;23.58;14.40;;;;;;;;;;5030126;28;20124;-77
2021/01/12 00:57:13;;;;;;;26.27;15.70;;;;;;;;;;5030362;28;20032;-77
2021/01/12 00:59:58;;;;;;;24.80;15.43;;;;;;;;;;5029299;28;20033;-79
2021/01/12 01:02:44;;;;;;;26.58;15.95;;;;;;;;;;5033062;28;20028;-78
2021/01/12 01:05:29;;;;;;;24.17;14.70;;;;;;;;;;5030416;28;20525;-79
2021/01/12 01:08:14;;;;;;;24.42;14.85;;;;;;;;;;5029586;28;20032;-77
2021/01/12 01:11:01;;;;;;;24.80;13.70;;;;;;;;;;5031894;28;20035;-77
2021/01/12 01:13:46;;;;;;;23.95;14.55;;;;;;;;;;5031626;28;20475;-77
2021/01/12 01:16:32;;;;;;;22.60;13.57;;;;;;;;;;5024879;28;20483;-76
2021/01/12 01:19:17;;;;;;;22.90;13.73;;;;;;;;;;5029275;28;20032;-77
2021/01/12 01:22:02;;;;;;;23.48;14.48;;;;;;;;;;5030247;28;20061;-76
2021/01/12 01:24:47;;;;;;;24.33;13.75;;;;;;;;;;5029741;28;20372;-76
2021/01/12 01:27:33;;;;;;;22.13;14.77;;;;;;;;;;5033114;28;20021;-76
2021/01/12 01:30:19;;;;;;;24.52;14.02;;;;;;;;;;5029392;28;20029;-79
2021/01/12 01:33:04;;;;;;;21.65;13.23;;;;;;;;;;5035765;28;20422;-77
2021/01/12 01:35:49;;;;;;;26.88;14.93;;;;;;;;;;5019656;28;20025;-77
2021/01/12 01:38:35;;;;;;;26.13;14.77;;;;;;;;;;5032849;28;20067;-77
2021/01/12 01:41:20;;;;;;;25.40;14.55;;;;;;;;;;5032043;28;20017;-77
2021/01/12 01:44:06;;;;;;;23.13;14.30;;;;;;;;;;5030698;28;20487;-77
2021/01/12 01:46:51;;;;;;;24.63;13.40;;;;;;;;;;5031904;28;20025;-77
2021/01/12 01:49:37;;;;;;;22.75;14.35;;;;;;;;;;5035063;28;20024;-78
2021/01/12 01:52:25;;;;;;;23.00;14.80;;;;;;;;;;5028640;28;20025;-77
2021/01/12 01:55:12;;;;;;;24.48;14.32;;;;;;;;;;5033410;28;20025;-77
2021/01/12 01:57:57;;;;;;;23.88;12.75;;;;;;;;;;5030403;28;20056;-77
2021/01/12 02:00:42;;;;;;;22.42;13.93;;;;;;;;;;5031348;28;21425;-77
2021/01/12 02:03:35;;;;;;;25.48;14.15;;;;;;;;;;5033520;28;20447;-77
2021/01/12 02:06:29;;;;;;;19.63;12.55;;;;;;;;;;5026815;28;20060;-77
2021/01/12 02:09:17;;;;;;;19.95;11.85;;;;;;;;;;5030996;28;20054;-76
2021/01/12 02:12:04;;;;;;;19.15;11.57;;;;;;;;;;5031009;28;20119;-77
2021/01/12 02:14:50;;;;;;;20.85;14.05;;;;;;;;;;5035476;28;20021;-77
2021/01/12 02:17:36;;;;;;;21.77;12.90;;;;;;;;;;5031588;28;20033;-76
2021/01/12 02:20:22;;;;;;;18.95;12.70;;;;;;;;;;5016799;28;20115;-77
2021/01/12 02:23:13;;;;;;;17.80;11.02;;;;;;;;;;5031419;28;20679;-77
2021/01/12 02:25:58;;;;;;;17.35;11.30;;;;;;;;;;5032291;28;20032;-77
2021/01/12 02:28:43;;;;;;;18.40;11.05;;;;;;;;;;5028678;28;20060;-76
2021/01/12 02:31:32;;;;;;;18.40;11.30;;;;;;;;;;5034391;28;20510;-77
2021/01/12 02:34:18;;;;;;;17.98;9.48;;;;;;;;;;5030286;28;20032;-77
2021/01/12 02:37:03;;;;;;;15.32;10.30;;;;;;;;;;5032502;28;20074;-77
2021/01/12 02:39:56;;;;;;;17.88;11.13;;;;;;;;;;5030643;28;20395;-77
2021/01/12 02:42:41;;;;;;;16.83;10.70;;;;;;;;;;5028168;28;20017;-78
2021/01/12 02:45:27;;;;;;;16.38;9.48;;;;;;;;;;5032678;28;20028;-78
2021/01/12 02:48:12;;;;;;;16.88;10.05;;;;;;;;;;5030512;28;20093;-77
2021/01/12 02:50:57;;;;;;;17.88;9.95;;;;;;;;;;5030598;28;20103;-78
2021/01/12 02:53:42;;;;;;;18.65;10.00;;;;;;;;;;5030291;28;20025;-77
2021/01/12 02:56:28;;;;;;;17.45;10.45;;;;;;;;;;5019218;28;20024;-77
2021/01/12 02:59:13;;;;;;;15.05;9.38;;;;;;;;;;5032179;28;20032;-78
2021/01/12 03:01:58;;;;;;;14.23;9.40;;;;;;;;;;5034022;28;20064;-78
2021/01/12 03:04:43;;;;;;;17.63;10.95;;;;;;;;;;5029223;28;20024;-78
2021/01/12 03:07:29;;;;;;;14.38;8.23;;;;;;;;;;5031574;28;20094;-77
2021/01/12 03:10:14;;;;;;;15.73;8.95;;;;;;;;;;5029920;28;20021;-77
2021/01/12 03:12:59;;;;;;;15.82;9.18;;;;;;;;;;5033080;28;20013;-77
2021/01/12 03:15:44;;;;;;;15.68;9.38;;;;;;;;;;5027564;28;20069;-77
2021/01/12 03:18:30;;;;;;;14.55;8.70;;;;;;;;;;5019344;28;20017;-77
2021/01/12 03:21:15;;;;;;;15.73;9.75;;;;;;;;;;5029306;28;20032;-77
2021/01/12 03:24:00;;;;;;;14.60;8.65;;;;;;;;;;5028749;28;20049;-77
2021/01/12 03:26:45;;;;;;;16.77;9.32;;;;;;;;;;5026726;28;20037;-77
2021/01/12 03:29:31;;;;;;;15.15;9.07;;;;;;;;;;5033671;28;20044;-77
2021/01/12 03:32:16;;;;;;;14.50;8.13;;;;;;;;;;5034190;28;20071;-78
2021/01/12 03:35:01;;;;;;;12.82;7.25;;;;;;;;;;5028931;28;20017;-76
2021/01/12 03:37:47;;;;;;;16.77;8.85;;;;;;;;;;5032575;28;20470;-76
2021/01/12 03:40:32;;;;;;;12.98;7.88;;;;;;;;;;5029931;28;20071;-76
2021/01/12 03:43:18;;;;;;;13.38;7.90;;;;;;;;;;5033061;28;20045;-76
2021/01/12 03:46:03;;;;;;;14.43;7.75;;;;;;;;;;5029364;28;20036;-77
2021/01/12 03:48:48;;;;;;;12.95;7.25;;;;;;;;;;5032703;28;20021;-77
2021/01/12 03:51:34;;;;;;;11.63;6.72;;;;;;;;;;5030080;28;20037;-76
2021/01/12 03:54:19;;;;;;;11.68;7.15;;;;;;;;;;5031744;28;20385;-76
2021/01/12 03:57:05;;;;;;;13.35;7.03;;;;;;;;;;5030769;28;20084;-78
2021/01/12 03:59:50;;;;;;;12.80;7.90;;;;;;;;;;5027829;28;20025;-78
2021/01/12 04:02:35;;;;;;;14.07;7.57;;;;;;;;;;5030307;28;20016;-77
2021/01/12 04:05:20;;;;;;;12.80;6.97;;;;;;;;;;5033435;28;20044;-76
2021/01/12 04:08:08;;;;;;;12.20;6.68;;;;;;;;;;5027893;28;20059;-79
2021/01/12 04:10:53;;;;;;;11.00;6.93;;;;;;;;;;5033321;28;20016;-79
2021/01/12 04:13:38;;;;;;;12.75;7.43;;;;;;;;;;5033541;28;20029;-78
2021/01/12 04:16:24;;;;;;;11.57;6.20;;;;;;;;;;5031474;28;20029;-78
2021/01/12 04:19:09;;;;;;;11.65;6.53;;;;;;;;;;5033001;28;20040;-78
2021/01/12 04:21:55;;;;;;;11.68;6.93;;;;;;;;;;5028109;28;20052;-78
2021/01/12 04:24:40;;;;;;;13.50;6.75;;;;;;;;;;5031119;28;20037;-78
2021/01/12 04:27:25;;;;;;;12.52;7.03;;;;;;;;;;5029867;28;20124;-78
2021/01/12 04:30:11;;;;;;;12.35;6.68;;;;;;;;;;5028873;28;20567;-78
2021/01/12 04:32:56;;;;;;;11.57;6.30;;;;;;;;;;5026841;28;20095;-78
2021/01/12 04:35:41;;;;;;;11.00;6.05;;;;;;;;;;5030651;28;20021;-78
2021/01/12 04:38:26;;;;;;;13.05;6.65;;;;;;;;;;5029387;28;20040;-77
2021/01/12 04:41:12;;;;;;;18.33;8.23;;;;;;;;;;5031742;28;20024;-78
2021/01/12 04:43:57;;;;;;;11.88;7.38;;;;;;;;;;5029762;28;20586;-78
2021/01/12 04:46:42;;;;;;;12.63;7.22;;;;;;;;;;5029421;28;20029;-78
2021/01/12 04:49:27;;;;;;;10.57;6.28;;;;;;;;;;5028973;28;20056;-78
2021/01/12 04:52:12;;;;;;;12.52;7.30;;;;;;;;;;5030342;28;20448;-78
2021/01/12 04:55:01;;;;;;;11.77;6.45;;;;;;;;;;5028682;28;20383;-78
2021/01/12 04:57:46;;;;;;;11.82;6.43;;;;;;;;;;5023806;28;20043;-78
2021/01/12 05:00:33;;;;;;;13.82;6.53;;;;;;;;;;5030360;28;20029;-78
2021/01/12 05:03:18;;;;;;;12.40;7.07;;;;;;;;;;5029531;28;20037;-79
2021/01/12 05:06:03;;;;;;;16.90;7.28;;;;;;;;;;5032955;28;20459;-77
2021/01/12 05:08:55;;;;;;;12.73;7.47;;;;;;;;;;5033121;28;20025;-78
2021/01/12 05:11:41;;;;;;;11.77;6.85;;;;;;;;;;5035047;28;20048;-76
2021/01/12 05:14:27;;;;;;;12.38;7.75;;;;;;;;;;5033341;28;20079;-76
2021/01/12 05:17:12;;;;;;;13.05;7.28;;;;;;;;;;5031171;28;20035;-76
2021/01/12 05:20:00;;;;;;;13.43;7.13;;;;;;;;;;5029454;28;20029;-76
2021/01/12 05:22:54;;;;;;;11.25;6.88;;;;;;;;;;5037268;28;20138;-77
2021/01/12 05:25:40;;;;;;;13.32;7.18;;;;;;;;;;5030076;28;20028;-77
2021/01/12 05:28:26;;;;;;;12.13;7.25;;;;;;;;;;5038116;28;20130;-77
2021/01/12 05:31:12;;;;;;;13.15;7.70;;;;;;;;;;5031994;28;20098;-77
2021/01/12 05:34:03;;;;;;;13.68;8.60;;;;;;;;;;5034241;28;20033;-78
2021/01/12 05:36:49;;;;;;;11.32;6.95;;;;;;;;;;5033103;28;20064;-78
2021/01/12 05:39:35;;;;;;;11.90;7.45;;;;;;;;;;5036368;28;20059;-77
2021/01/12 05:42:20;;;;;;;13.38;7.47;;;;;;;;;;5034711;28;20067;-78
2021/01/12 05:45:06;;;;;;;12.50;7.50;;;;;;;;;;5029972;28;20458;-77
2021/01/12 05:47:55;;;;;;;13.07;7.63;;;;;;;;;;5027442;28;20566;-79
2021/01/12 05:50:40;;;;;;;14.23;7.43;;;;;;;;;;5033035;28;20070;-75
2021/01/12 05:53:32;;;;;;;11.70;6.82;;;;;;;;;;5034798;28;20207;-77
2021/01/12 05:56:21;;;;;;;11.57;6.93;;;;;;;;;;5029536;28;20487;-76
2021/01/12 05:59:14;;;;;;;12.37;7.03;;;;;;;;;;5035239;28;20086;-79
2021/01/12 06:02:02;;;;;;;12.52;6.68;;;;;;;;;;5029640;28;20029;-78
2021/01/12 06:04:50;;;;;;;12.23;6.72;;;;;;;;;;5024744;28;20029;-78
2021/01/12 06:07:37;;;;;;;12.15;6.70;;;;;;;;;;5037803;28;20443;-78
2021/01/12 06:10:23;;;;;;;14.48;6.78;;;;;;;;;;5035399;28;20094;-78
2021/01/12 06:13:11;;;;;;;10.88;6.30;;;;;;;;;;5034269;28;20028;-78
2021/01/12 06:16:04;;;;;;;10.40;5.97;;;;;;;;;;5034227;28;20021;-78
2021/01/12 06:19:05;;;;;;;10.95;5.80;;;;;;;;;;5031956;28;20560;-78
2021/01/12 06:21:53;;;;;;;11.38;6.35;;;;;;;;;;5028685;28;20041;-78
2021/01/12 06:24:44;;;;;;;14.60;6.82;;;;;;;;;;5034415;28;20101;-78
2021/01/12 06:27:30;;;;;;;12.60;6.78;;;;;;;;;;5033061;28;20024;-78
2021/01/12 06:30:17;;;;;;;11.32;6.97;;;;;;;;;;5030518;28;20024;-78
2021/01/12 06:33:02;;;;;;;12.43;6.93;;;;;;;;;;5033052;28;20036;-78
2021/01/12 06:35:50;;;;;;;12.88;7.03;;;;;;;;;;5031067;28;20029;-79
2021/01/12 06:38:37;;;;;;;12.50;7.03;;;;;;;;;;5031163;28;20379;-77
2021/01/12 06:41:22;;;;;;;15.00;7.78;;;;;;;;;;5034323;28;20035;-78
2021/01/12 06:44:15;;;;;;;11.60;6.95;;;;;;;;;;5026396;28;20569;-78
2021/01/12 06:47:01;;;;;;;12.52;6.22;;;;;;;;;;5031312;28;20099;-78
2021/01/12 06:49:46;;;;;;;11.20;5.80;;;;;;;;;;5034960;28;20052;-78
2021/01/12 06:52:36;;;;;;;11.32;6.43;;;;;;;;;;5017415;28;20075;-78
2021/01/12 06:55:22;;;;;;;12.00;6.63;;;;;;;;;;5033328;28;20032;-78
2021/01/12 06:58:08;;;;;;;13.65;7.40;;;;;;;;;;5031717;28;20499;-78
2021/01/12 07:00:58;;;;;;;11.40;6.68;;;;;;;;;;5028791;28;20458;-75
2021/01/12 07:03:44;;;;;;;11.13;6.70;;;;;;;;;;5030198;28;20510;-76
2021/01/12 07:06:32;;;;;;;12.05;6.25;;;;;;;;;;5031655;28;20033;-79
2021/01/12 07:09:19;;;;;;;11.82;6.95;;;;;;;;;;5031614;28;20033;-79
2021/01/12 07:12:08;;;;;;;10.05;5.30;;;;;;;;;;5033197;28;20090;-81
2021/01/12 07:14:54;;;;;;;11.50;6.32;;;;;;;;;;5031293;28;20087;-80
2021/01/12 07:17:40;;;;;;;10.50;5.43;;;;;;;;;;5033617;28;20032;-80
2021/01/12 07:20:27;;;;;;;11.73;6.13;;;;;;;;;;5029911;28;20431;-79
2021/01/12 07:23:12;;;;;;;10.13;5.93;;;;;;;;;;5035414;28;20040;-79
2021/01/12 07:26:03;;;;;;;10.63;5.68;;;;;;;;;;5034229;28;20042;-79
2021/01/12 07:28:48;;;;;;;10.63;5.97;;;;;;;;;;5035172;28;20532;-79
2021/01/12 07:31:33;;;;;;;9.52;4.97;;;;;;;;;;5032943;28;20069;-79
2021/01/12 07:34:19;;;;;;;12.00;5.80;;;;;;;;;;5033663;28;20017;-79
2021/01/12 07:37:05;;;;;;;8.85;5.53;;;;;;;;;;5042967;28;20013;-77
2021/01/12 07:39:50;;;;;;;11.20;5.88;;;;;;;;;;5031450;28;20028;-78
2021/01/12 07:42:44;;;;;;;10.45;5.88;;;;;;;;;;5034619;28;20025;-75
2021/01/12 07:45:31;;;;;;;12.88;6.85;;;;;;;;;;5029466;28;20016;-75
2021/01/12 07:48:16;;;;;;;8.63;4.85;;;;;;;;;;5032015;28;20029;-76
2021/01/12 07:51:02;;;;;;;10.55;5.93;;;;;;;;;;5033503;28;20036;-77
2021/01/12 07:53:47;;;;;;;11.93;5.65;;;;;;;;;;5032468;28;20033;-78
2021/01/12 07:56:33;;;;;;;9.95;5.63;;;;;;;;;;5032826;28;20025;-75
2021/01/12 07:59:19;;;;;;;11.23;5.88;;;;;;;;;;5035008;28;20095;-76
2021/01/12 08:02:07;;;;;;;9.93;5.05;;;;;;;;;;5031567;28;20020;-76
2021/01/12 08:04:53;;;;;;;9.60;5.35;;;;;;;;;;5034823;28;20549;-77
2021/01/12 08:07:38;;;;;;;10.20;5.32;;;;;;;;;;5027419;28;20491;-77
2021/01/12 08:10:23;;;;;;;11.45;6.10;;;;;;;;;;5033523;28;20021;-76
2021/01/12 08:13:12;;;;;;;10.43;5.50;;;;;;;;;;5033928;28;20687;-78
2021/01/12 08:15:58;;;;;;;11.00;5.65;;;;;;;;;;5035571;28;20025;-77
2021/01/12 08:18:43;;;;;;;30.25;17.48;;;;;;;;;;5038229;28;20491;-77
2021/01/12 08:21:38;;;;;;;10.55;5.53;;;;;;;;;;5039239;28;20115;-77
2021/01/12 08:24:25;;;;;;;10.15;5.55;;;;;;;;;;5032131;28;20021;-78
2021/01/12 08:27:10;;;;;;;11.15;5.78;;;;;;;;;;5026429;28;20074;-77
2021/01/12 08:29:58;;;;;;;8.60;4.80;;;;;;;;;;5034908;28;20041;-76
2021/01/12 08:32:45;;;;;;;8.52;3.97;;;;;;;;;;5024196;28;20036;-77
2021/01/12 08:35:30;;;;;;;7.75;4.70;;;;;;;;;;5038610;28;20055;-78
2021/01/12 08:38:16;;;;;;;9.93;4.22;;;;;;;;;;5035613;28;20617;-77
2021/01/12 08:41:05;;;;;;;9.52;4.18;;;;;;;;;;5035157;28;20027;-77
2021/01/12 08:43:51;;;;;;;9.57;5.20;;;;;;;;;;5040574;28;20067;-78
2021/01/12 08:46:36;;;;;;;7.25;3.90;;;;;;;;;;5034547;28;20455;-78
2021/01/12 08:49:28;;;;;;;10.40;4.60;;;;;;;;;;5038837;28;20029;-78
2021/01/12 08:52:14;;;;;;;7.07;3.97;;;;;;;;;;5033913;28;20356;-77
2021/01/12 08:55:00;;;;;;;8.27;4.07;;;;;;;;;;5041325;28;20375;-77
2021/01/12 08:57:59;;;;;;;6.78;4.03;;;;;;;;;;5039165;28;20033;-78
2021/01/12 09:00:44;;;;;;;9.10;4.05;;;;;;;;;;5039439;28;20083;-77
2021/01/12 09:03:30;;;;;;;8.15;4.30;;;;;;;;;;5024634;28;20077;-77
2021/01/12 09:06:18;;;;;;;6.82;3.83;;;;;;;;;;5036842;28;20051;-78
2021/01/12 09:09:05;;;;;;;10.45;5.40;;;;;;;;;;5020978;28;20025;-76
2021/01/12 09:11:50;;;;;;;7.35;3.50;;;;;;;;;;5039222;28;20122;-76
2021/01/12 09:14:44;;;;;;;6.35;4.00;;;;;;;;;;5038254;28;20083;-77
2021/01/12 09:17:29;;;;;;;6.80;3.90;;;;;;;;;;5038882;28;20444;-77
2021/01/12 09:20:23;;;;;;;6.13;3.35;;;;;;;;;;5035654;28;20078;-76
2021/01/12 09:23:09;;;;;;;4.65;2.70;;;;;;;;;;5037432;28;20116;-79
2021/01/12 09:26:00;;;;;;;4.95;3.15;;;;;;;;;;5022211;28;20036;-77
2021/01/12 09:28:48;;;;;;;5.85;2.97;;;;;;;;;;5031368;28;20480;-77
2021/01/12 09:31:41;;;;;;;3.70;2.33;;;;;;;;;;5025288;28;20497;-77
2021/01/12 09:34:26;;;;;;;5.63;2.40;;;;;;;;;;5036260;28;20025;-77
2021/01/12 09:37:15;;;;;;;4.25;2.63;;;;;;;;;;5039868;28;20013;-77
2021/01/12 09:40:01;;;;;;;2.78;2.03;;;;;;;;;;5035842;28;20025;-77
2021/01/12 09:42:46;;;;;;;3.15;1.85;;;;;;;;;;5036124;28;20068;-77
2021/01/12 09:45:31;;;;;;;2.10;1.40;;;;;;;;;;5036917;28;20028;-77
2021/01/12 09:48:16;;;;;;;3.85;1.77;;;;;;;;;;5038559;28;20025;-76
2021/01/12 09:51:02;;;;;;;2.10;1.52;;;;;;;;;;5033229;28;20460;-77
2021/01/12 09:53:49;;;;;;;3.33;1.95;;;;;;;;;;5035244;28;20495;-78
2021/01/12 09:56:35;;;;;;;2.83;1.58;;;;;;;;;;5034945;28;20139;-76
2021/01/12 09:59:20;;;;;;;4.03;1.60;;;;;;;;;;5038709;28;21760;-77
2021/01/12 10:02:06;;;;;;;3.47;1.50;;;;;;;;;;5036620;28;20095;-77
2021/01/12 10:04:51;;;;;;;3.00;1.80;;;;;;;;;;5036325;28;20120;-77
2021/01/12 10:07:37;;;;;;;2.92;1.50;;;;;;;;;;5039944;28;20120;-76
2021/01/12 10:10:22;;;;;;;3.00;1.67;;;;;;;;;;5037654;28;20494;-78
2021/01/12 10:13:07;;;;;;;2.80;1.60;;;;;;;;;;5037703;28;20032;-77
2021/01/12 10:15:52;;;;;;;1.88;1.25;;;;;;;;;;5034698;28;20043;-77
2021/01/12 10:18:38;;;;;;;2.63;1.65;;;;;;;;;;5034470;28;20021;-79
2021/01/12 10:21:23;;;;;;;2.88;1.77;;;;;;;;;;5037089;28;20048;-75
2021/01/12 10:24:08;;;;;;;1.35;1.10;;;;;;;;;;5024105;28;20024;-77
2021/01/12 10:26:54;;;;;;;3.13;1.50;;;;;;;;;;5032099;28;20041;-79
2021/01/12 10:29:39;;;;;;;5.50;3.00;;;;;;;;;;5034872;28;20539;-79
2021/01/12 10:32:24;;;;;;;3.80;1.50;;;;;;;;;;5032407;28;20055;-77
2021/01/12 10:35:10;;;;;;;2.85;1.55;;;;;;;;;;5034423;28;20036;-77
2021/01/12 10:37:55;;;;;;;2.28;1.50;;;;;;;;;;5034923;28;20685;-77
2021/01/12 10:40:40;;;;;;;6.70;2.97;;;;;;;;;;5036518;28;20112;-77
2021/01/12 10:43:26;;;;;;;2.95;1.40;;;;;;;;;;5033204;28;20054;-78
2021/01/12 10:46:15;;;;;;;4.03;1.60;;;;;;;;;;5036028;28;20645;-78
2021/01/12 10:49:00;;;;;;;2.70;1.50;;;;;;;;;;5034976;28;20642;-79
2021/01/12 10:51:46;;;;;;;2.40;1.30;;;;;;;;;;5031949;28;20108;-78
2021/01/12 10:54:31;;;;;;;6.07;1.35;;;;;;;;;;5039145;28;20024;-77
2021/01/12 10:57:16;;;;;;;5.72;1.48;;;;;;;;;;5036479;28;20021;-77
2021/01/12 11:00:03;;;;;;;4.47;1.60;;;;;;;;;;5034292;28;20024;-77
2021/01/12 11:02:49;;;;;;;5.10;1.40;;;;;;;;;;5032759;28;20033;-76
2021/01/12 11:05:34;;;;;;;3.75;1.40;;;;;;;;;;5035818;28;21605;-76
2021/01/12 11:08:19;;;;;;;3.22;1.52;;;;;;;;;;5035060;28;20039;-77
2021/01/12 11:11:05;;;;;;;2.60;1.13;;;;;;;;;;5038788;28;20399;-76
2021/01/12 11:13:51;;;;;;;2.90;0.98;;;;;;;;;;5029671;28;20040;-76
2021/01/12 11:16:40;;;;;;;13.23;5.53;;;;;;;;;;5038599;28;20035;-76
2021/01/12 11:19:25;;;;;;;3.03;1.13;;;;;;;;;;5021202;28;20036;-76
2021/01/12 11:22:10;;;;;;;3.58;1.30;;;;;;;;;;5038550;28;20399;-77
2021/01/12 11:24:57;;;;;;;1.73;1.00;;;;;;;;;;5031853;28;20047;-76
2021/01/12 11:27:42;;;;;;;3.03;0.95;;;;;;;;;;5035699;28;20039;-77
2021/01/12 11:30:27;;;;;;;3.42;1.50;;;;;;;;;;5030962;28;20020;-76
2021/01/12 11:33:12;;;;;;;1.92;0.98;;;;;;;;;;5037612;28;20033;-76
2021/01/12 11:35:58;;;;;;;2.45;0.75;;;;;;;;;;5034492;28;20036;-77
2021/01/12 11:38:43;;;;;;;1.55;0.90;;;;;;;;;;5032488;28;20179;-76
2021/01/12 11:41:28;;;;;;;1.00;0.70;;;;;;;;;;5040517;28;20287;-77
2021/01/12 11:44:14;;;;;;;3.67;1.83;;;;;;;;;;5014246;28;20074;-76
2021/01/12 11:46:59;;;;;;;2.47;1.08;;;;;;;;;;5034258;28;20063;-75
2021/01/12 11:49:45;;;;;;;4.18;1.05;;;;;;;;;;5034965;28;20060;-77
2021/01/12 11:52:30;;;;;;;2.80;1.10;;;;;;;;;;5030604;28;20035;-78
2021/01/12 11:55:48;;;;;;;21.85;11.50;;;;;;;;;;5030323;28;20093;-78
2021/01/12 11:58:34;;;;;;;3.65;2.03;;;;;;;;;;5016182;28;20033;-76
2021/01/12 12:01:19;;;;;;;2.97;1.35;;;;;;;;;;5032393;28;20028;-76
2021/01/12 12:04:04;;;;;;;1.60;0.90;;;;;;;;;;5034167;28;20487;-77
2021/01/12 12:06:51;;;;;;;5.43;1.10;;;;;;;;;;5030296;28;20064;-78
2021/01/12 12:09:36;;;;;;;2.53;0.98;;;;;;;;;;5032568;28;20116;-77
2021/01/12 12:12:21;;;;;;;1.20;0.85;;;;;;;;;;5028596;28;20718;-77
2021/01/12 12:15:07;;;;;;;1.27;0.93;;;;;;;;;;5025140;28;20017;-76
2021/01/12 12:17:52;;;;;;;2.50;0.80;;;;;;;;;;5030026;28;20028;-77
2021/01/12 12:20:37;;;;;;;0.85;0.80;;;;;;;;;;5029520;28;20534;-76
2021/01/12 12:23:23;;;;;;;1.13;0.90;;;;;;;;;;5036938;28;20024;-75
2021/01/12 12:26:13;;;;;;;0.50;0.50;;;;;;;;;;5019209;28;20051;-77
2021/01/12 12:28:58;;;;;;;1.08;0.77;;;;;;;;;;5032099;28;20064;-77
2021/01/12 12:31:43;;;;;;;1.00;0.57;;;;;;;;;;5026575;28;20033;-76
2021/01/12 12:34:29;;;;;;;1.25;0.70;;;;;;;;;;5032278;28;20059;-78
2021/01/12 12:37:16;;;;;;;1.08;0.80;;;;;;;;;;5030448;28;20017;-78
2021/01/12 12:40:02;;;;;;;1.67;0.70;;;;;;;;;;5035354;28;20082;-78
2021/01/12 12:42:47;;;;;;;0.98;0.70;;;;;;;;;;5031530;28;20090;-77
2021/01/12 12:45:33;;;;;;;2.55;0.60;;;;;;;;;;5031308;28;20499;-77
2021/01/12 12:48:18;;;;;;;1.25;0.70;;;;;;;;;;5028161;28;20107;-77
2021/01/12 12:51:04;;;;;;;1.55;0.70;;;;;;;;;;5032454;28;20105;-77
2021/01/12 12:53:51;;;;;;;3.55;0.82;;;;;;;;;;5030360;28;20063;-76
2021/01/12 12:56:37;;;;;;;2.08;0.80;;;;;;;;;;5028766;28;20115;-79
2021/01/12 12:59:25;;;;;;;7.10;0.75;;;;;;;;;;5030432;28;20024;-78
2021/01/12 13:02:10;;;;;;;1.40;0.80;;;;;;;;;;5027747;28;20063;-78
2021/01/12 13:04:56;;;;;;;1.45;0.60;;;;;;;;;;5034029;28;20426;-76
2021/01/12 13:07:41;;;;;;;1.13;0.65;;;;;;;;;;5031787;28;20068;-78
2021/01/12 13:10:26;;;;;;;0.77;0.77;;;;;;;;;;5036243;28;20375;-78
2021/01/12 13:13:12;;;;;;;0.47;0.47;;;;;;;;;;5031444;28;20029;-78
2021/01/12 13:15:57;;;;;;;1.70;0.80;;;;;;;;;;5030021;28;20040;-79
2021/01/12 13:18:44;;;;;;;0.77;0.60;;;;;;;;;;5031268;28;20475;-78
2021/01/12 13:21:29;;;;;;;0.73;0.55;;;;;;;;;;5028761;28;20475;-79
2021/01/12 13:24:15;;;;;;;1.40;0.57;;;;;;;;;;5023024;28;20068;-78
2021/01/12 13:27:00;;;;;;;1.20;0.80;;;;;;;;;;5028694;28;20039;-79
2021/01/12 13:29:46;;;;;;;1.63;0.80;;;;;;;;;;5029920;28;20080;-78
2021/01/12 13:32:41;;;;;;;1.40;0.60;;;;;;;;;;5038413;28;20094;-79
2021/01/12 13:35:26;;;;;;;0.68;0.60;;;;;;;;;;5035225;28;20033;-77
2021/01/12 13:38:11;;;;;;;2.13;0.65;;;;;;;;;;5040799;28;20048;-79
2021/01/12 13:40:57;;;;;;;2.90;0.70;;;;;;;;;;5035108;28;20035;-78
2021/01/12 13:43:42;;;;;;;16.80;8.98;;;;;;;;;;5033897;28;20041;-78
2021/01/12 13:46:27;;;;;;;0.75;0.70;;;;;;;;;;5033949;28;20029;-77
2021/01/12 13:49:13;;;;;;;0.57;0.50;;;;;;;;;;5032100;28;20104;-77
2021/01/12 13:51:58;;;;;;;3.08;0.90;;;;;;;;;;5035950;28;20380;-77
2021/01/12 13:54:44;;;;;;;0.90;0.70;;;;;;;;;;5033097;28;20059;-78
2021/01/12 13:57:34;;;;;;;2.10;0.80;;;;;;;;;;5036807;28;20036;-77
2021/01/12 14:00:19;;;;;;;1.05;0.70;;;;;;;;;;5035103;28;20021;-79
2021/01/12 14:03:05;;;;;;;1.02;0.60;;;;;;;;;;5035532;28;20103;-78
2021/01/12 14:05:50;;;;;;;1.60;0.60;;;;;;;;;;5031922;28;20493;-78
2021/01/12 14:08:35;;;;;;;0.70;0.40;;;;;;;;;;5033888;28;20495;-75
2021/01/12 14:11:21;;;;;;;1.92;0.60;;;;;;;;;;5035581;28;20036;-77
2021/01/12 14:14:06;;;;;;;1.15;0.70;;;;;;;;;;5035766;28;20431;-76
2021/01/12 14:16:55;;;;;;;2.00;0.70;;;;;;;;;;5031038;28;20089;-77
2021/01/12 14:19:41;;;;;;;3.15;0.77;;;;;;;;;;5039794;28;20464;-78
2021/01/12 14:22:27;;;;;;;2.35;0.77;;;;;;;;;;5040321;28;20020;-76
2021/01/12 14:25:12;;;;;;;1.88;0.82;;;;;;;;;;5032657;28;20699;-77
2021/01/12 14:27:57;;;;;;;1.95;0.75;;;;;;;;;;5036849;28;20028;-77
2021/01/12 14:30:43;;;;;;;1.88;0.73;;;;;;;;;;5033416;28;20017;-77
2021/01/12 14:33:28;;;;;;;2.33;0.85;;;;;;;;;;5033020;28;20028;-77
2021/01/12 14:36:18;;;;;;;2.58;0.85;;;;;;;;;;5027003;28;20499;-78
2021/01/12 14:39:06;;;;;;;1.88;0.70;;;;;;;;;;5031118;28;20116;-77
2021/01/12 14:41:55;;;;;;;0.82;0.70;;;;;;;;;;5015875;28;20028;-78
2021/01/12 14:44:40;;;;;;;27.08;16.42;;;;;;;;;;5028779;28;20040;-77
2021/01/12 14:47:27;;;;;;;1.38;0.80;;;;;;;;;;5033568;28;20032;-77
2021/01/12 14:50:12;;;;;;;1.48;0.80;;;;;;;;;;5027230;28;20041;-75
2021/01/12 14:52:57;;;;;;;1.08;0.63;;;;;;;;;;5023410;28;20055;-77
2021/01/12 14:55:43;;;;;;;0.85;0.50;;;;;;;;;;5029624;28;20530;-77
2021/01/12 14:58:28;;;;;;;0.60;0.60;;;;;;;;;;5039591;28;20032;-76
2021/01/12 15:01:13;;;;;;;0.60;0.60;;;;;;;;;;5031727;28;20475;-75
2021/01/12 15:03:58;;;;;;;1.45;0.57;;;;;;;;;;5033951;28;20528;-77
2021/01/12 15:06:43;;;;;;;1.83;0.60;;;;;;;;;;5028129;28;20113;-76
2021/01/12 15:09:29;;;;;;;2.17;1.00;;;;;;;;;;5032554;28;20140;-76
2021/01/12 15:12:14;;;;;;;1.52;0.80;;;;;;;;;;5027223;28;20034;-77
2021/01/12 15:14:59;;;;;;;0.80;0.70;;;;;;;;;;5025070;28;20104;-76
2021/01/12 15:17:44;;;;;;;1.02;0.63;;;;;;;;;;5027688;28;20495;-75
2021/01/12 15:20:30;;;;;;;1.88;1.23;;;;;;;;;;5025065;28;20384;-76
2021/01/12 15:23:15;;;;;;;4.20;0.85;;;;;;;;;;5024224;28;20067;-78
2021/01/12 15:26:04;;;;;;;2.00;0.77;;;;;;;;;;5027882;28;20163;-75
2021/01/12 15:28:49;;;;;;;1.05;0.80;;;;;;;;;;5025402;28;20029;-76
2021/01/12 15:31:35;;;;;;;2.28;0.82;;;;;;;;;;5027771;28;20507;-78
2021/01/12 15:34:20;;;;;;;1.25;0.82;;;;;;;;;;5019439;28;20166;-78
2021/01/12 15:37:05;;;;;;;1.42;0.93;;;;;;;;;;5025780;28;20493;-76
2021/01/12 15:39:51;;;;;;;1.50;0.70;;;;;;;;;;5024075;28;20838;-76
2021/01/12 15:42:36;;;;;;;1.17;0.68;;;;;;;;;;5025698;28;20025;-76
2021/01/12 15:45:21;;;;;;;1.95;0.88;;;;;;;;;;5025238;28;20029;-77
2021/01/12 15:48:11;;;;;;;6.03;3.03;;;;;;;;;;5027210;28;20053;-76
2021/01/12 15:50:59;;;;;;;1.15;0.60;;;;;;;;;;5035812;28;20033;-76
2021/01/12 15:53:44;;;;;;;1.58;0.82;;;;;;;;;;5024169;28;20036;-76
2021/01/12 15:56:30;;;;;;;1.48;0.60;;;;;;;;;;5022383;28;20025;-76
2021/01/12 15:59:15;;;;;;;1.77;0.90;;;;;;;;;;5024239;28;20507;-76
2021/01/12 16:02:01;;;;;;;0.73;0.50;;;;;;;;;;5022551;28;20076;-76
2021/01/12 16:04:49;;;;;;;2.70;0.90;;;;;;;;;;5021581;28;20036;-76
2021/01/12 16:07:45;;;;;;;1.25;0.90;;;;;;;;;;5028470;28;20068;-76
2021/01/12 16:10:32;;;;;;;1.70;0.90;;;;;;;;;;5026605;28;20087;-76
2021/01/12 16:13:18;;;;;;;3.08;1.00;;;;;;;;;;5031050;28;20063;-76
2021/01/12 16:16:06;;;;;;;1.63;0.90;;;;;;;;;;5024828;28;20033;-76
2021/01/12 16:18:52;;;;;;;1.50;0.95;;;;;;;;;;5032104;28;20036;-76
2021/01/12 16:21:39;;;;;;;2.45;0.90;;;;;;;;;;5020841;28;20067;-78
2021/01/12 16:24:24;;;;;;;6.95;3.42;;;;;;;;;;5027596;28;20079;-75
2021/01/12 16:27:09;;;;;;;0.80;0.70;;;;;;;;;;5029458;28;20029;-76